Terminal Aerodrome Forecast
Issued by NWS Grand Forks, ND

Home | Current Version | Previous Version | Text Only | Print | Product List | Glossary Off
Versions: 1 2 3 4 5 6 7 8 9 10 11 12 13 14 15

000
FTUS43 KFGF 141100
TAFGFK
TAF
KGFK 141120Z 1412/1512 36007KT P6SM SCT050
     FM141500 35016G23KT P6SM BKN050
     FM142200 35012KT P6SM SCT050
     FM150300 VRB06KT P6SM SCT250=

USA.gov is the U.S. government's official web portal to all federal, state and local government web resources and services.